Time;durP1;ratioP1;P1;durP2;ratioP2;P2;SDS_P1;SDS_P2;PMS_P1;PMS_P2;Temp;Humidity;BMP_temperature;BMP_pressure;BME280_temperature;BME280_humidity;BME280_pressure;Samples;Min_cycle;Max_cycle;Signal;HPM_P1;HPM_P2
2022/12/20 00:01:09;;;;;;;3.55;3.25;;;9.50;99.90;;;;;;5048479;28;20087;-51
2022/12/20 00:03:35;;;;;;;6.05;3.30;;;9.50;99.90;;;;;;5048149;28;20033;-54
2022/12/20 00:06:01;;;;;;;6.63;3.13;;;9.50;99.90;;;;;;5047842;28;20033;-53
2022/12/20 00:08:27;;;;;;;3.75;2.95;;;9.60;99.90;;;;;;5048294;28;20083;-54
2022/12/20 00:10:52;;;;;;;4.53;3.30;;;9.60;99.90;;;;;;5048239;28;20036;-52
2022/12/20 00:13:18;;;;;;;3.70;2.63;;;9.60;99.90;;;;;;5047260;28;20414;-52
2022/12/20 00:15:43;;;;;;;4.60;3.10;;;9.60;99.90;;;;;;5048584;28;20033;-52
2022/12/20 00:18:09;;;;;;;7.47;3.13;;;9.60;99.90;;;;;;5048140;28;20489;-51
2022/12/20 00:20:35;;;;;;;3.80;3.22;;;9.60;99.90;;;;;;5047818;28;20460;-54
2022/12/20 00:23:01;;;;;;;5.63;3.40;;;9.60;99.90;;;;;;5047296;28;20056;-54
2022/12/20 00:25:26;;;;;;;4.45;2.95;;;9.60;99.90;;;;;;5045445;28;20281;-51
2022/12/20 00:27:52;;;;;;;4.27;2.53;;;9.60;99.90;;;;;;5048071;28;20037;-52
2022/12/20 00:30:18;;;;;;;4.17;3.07;;;9.60;99.90;;;;;;5048965;28;20033;-55
2022/12/20 00:32:44;;;;;;;4.72;2.65;;;9.70;99.90;;;;;;5047394;28;20462;-56
2022/12/20 00:35:10;;;;;;;;;;;9.60;99.90;;;;;;5047716;28;20075;-55
2022/12/20 00:37:36;;;;;;;5.20;2.75;;;9.60;99.90;;;;;;5047736;28;19955;-52
2022/12/20 00:40:03;;;;;;;4.90;2.45;;;9.70;99.90;;;;;;5050976;28;20059;-54
2022/12/20 00:42:29;;;;;;;3.95;2.45;;;9.70;99.90;;;;;;5051623;28;20102;-54
2022/12/20 00:44:54;;;;;;;4.60;3.07;;;9.70;99.90;;;;;;5051250;28;20041;-51
2022/12/20 00:47:20;;;;;;;3.37;2.33;;;9.70;99.90;;;;;;5051058;28;20048;-54
2022/12/20 00:49:45;;;;;;;3.90;2.93;;;9.70;99.90;;;;;;5048757;28;20039;-54
2022/12/20 00:52:11;;;;;;;3.67;2.63;;;9.70;99.90;;;;;;5051943;28;20090;-56
2022/12/20 00:54:36;;;;;;;3.93;2.60;;;9.80;99.90;;;;;;5050812;28;20110;-55
2022/12/20 00:57:02;;;;;;;5.70;2.80;;;9.80;99.90;;;;;;5051508;28;20044;-55
2022/12/20 00:59:28;;;;;;;3.53;2.75;;;9.80;99.90;;;;;;5051658;28;20036;-55
2022/12/20 01:01:53;;;;;;;2.90;2.57;;;9.80;99.90;;;;;;5051572;28;20536;-54
2022/12/20 01:04:19;;;;;;;3.43;2.13;;;9.80;99.90;;;;;;5049826;28;20033;-56
2022/12/20 01:06:45;;;;;;;2.95;2.47;;;9.80;99.90;;;;;;5051802;28;20060;-56
2022/12/20 01:09:11;;;;;;;12.80;2.95;;;9.80;99.90;;;;;;5049630;28;20048;-56
2022/12/20 01:11:38;;;;;;;6.63;2.55;;;9.90;99.90;;;;;;5051531;28;20037;-53
2022/12/20 01:14:16;;;;;;;5.20;2.92;;;9.80;99.90;;;;;;5050306;28;20124;-55
2022/12/20 01:16:45;;;;;;;5.28;3.05;;;9.90;99.90;;;;;;5050282;28;20154;-55
2022/12/20 01:19:13;;;;;;;7.32;2.65;;;10.00;99.90;;;;;;5048550;28;20043;-55
2022/12/20 01:21:43;;;;;;;3.28;2.47;;;10.00;99.90;;;;;;5051397;28;20451;-56
2022/12/20 01:24:13;;;;;;;4.10;3.08;;;10.00;99.90;;;;;;5050269;28;20044;-56
2022/12/20 01:26:39;;;;;;;4.32;2.90;;;10.00;99.90;;;;;;5049680;28;20127;-56
2022/12/20 01:29:04;;;;;;;4.90;2.57;;;10.00;99.90;;;;;;5050551;28;20178;-55
2022/12/20 01:31:30;;;;;;;3.57;2.00;;;10.00;99.90;;;;;;5082953;28;20051;-55
2022/12/20 01:33:56;;;;;;;6.05;2.55;;;9.90;99.90;;;;;;5049864;28;20037;-56
2022/12/20 01:36:24;;;;;;;2.42;1.77;;;9.90;99.90;;;;;;5050527;28;20045;-56
2022/12/20 01:38:49;;;;;;;5.28;2.58;;;10.00;99.90;;;;;;5050384;28;20102;-56
2022/12/20 01:41:20;;;;;;;5.57;2.72;;;10.00;99.90;;;;;;5049021;28;20509;-55
2022/12/20 01:43:53;;;;;;;4.82;2.78;;;10.00;99.90;;;;;;5049322;28;20041;-53
2022/12/20 01:46:21;;;;;;;3.97;2.05;;;10.00;99.90;;;;;;5051123;28;20029;-51
2022/12/20 01:49:07;;;;;;;4.43;2.58;;;10.00;99.90;;;;;;5050248;28;20508;-54
2022/12/20 01:51:38;;;;;;;4.82;2.17;;;10.00;99.90;;;;;;5049922;28;20498;-52
2022/12/20 01:54:11;;;;;;;5.63;2.53;;;10.00;99.90;;;;;;5048027;28;20059;-54
2022/12/20 01:56:38;;;;;;;6.95;2.22;;;10.00;99.90;;;;;;5050763;28;20043;-54
2022/12/20 01:59:03;;;;;;;;;;;10.00;99.90;;;;;;5051319;28;20090;-52
2022/12/20 02:01:29;;;;;;;4.57;2.75;;;10.00;99.90;;;;;;5052070;28;19924;-51
2022/12/20 02:03:55;;;;;;;2.40;1.70;;;10.00;99.90;;;;;;5050805;28;20040;-52
2022/12/20 02:06:23;;;;;;;3.13;2.00;;;10.00;99.90;;;;;;5052187;28;20271;-51
2022/12/20 02:08:51;;;;;;;4.25;1.88;;;10.00;99.90;;;;;;5049596;28;20044;-53
2022/12/20 02:11:25;;;;;;;2.88;2.25;;;10.10;99.90;;;;;;5051314;28;20049;-52
2022/12/20 02:14:03;;;;;;;3.60;1.73;;;10.00;99.90;;;;;;5050058;28;20051;-52
2022/12/20 02:16:34;;;;;;;3.42;2.40;;;10.10;99.90;;;;;;5051141;28;20044;-53
2022/12/20 02:19:00;;;;;;;3.67;1.92;;;10.10;99.90;;;;;;5050702;28;20068;-51
2022/12/20 02:21:44;;;;;;;4.23;1.87;;;10.10;99.90;;;;;;5050776;28;20080;-56
2022/12/20 02:24:43;;;;;;;2.25;2.03;;;10.10;99.90;;;;;;5048656;28;20048;-52
2022/12/20 02:27:28;;;;;;;4.90;2.40;;;10.20;99.90;;;;;;5050796;28;20414;-53
2022/12/20 02:30:04;;;;;;;2.42;2.03;;;10.20;99.90;;;;;;5030649;28;20430;-53
2022/12/20 02:32:37;;;;;;;4.85;2.00;;;10.20;99.90;;;;;;5031968;28;20053;-52
2022/12/20 02:35:06;;;;;;;2.55;1.45;;;10.20;99.90;;;;;;5050384;28;20033;-54
2022/12/20 02:37:32;;;;;;;2.50;1.77;;;10.20;99.90;;;;;;5050046;28;20048;-52
2022/12/20 02:39:58;;;;;;;2.85;1.48;;;10.20;99.90;;;;;;5050419;28;20041;-55
2022/12/20 02:42:26;;;;;;;4.82;2.55;;;10.20;99.90;;;;;;5050631;28;20049;-55
2022/12/20 02:45:16;;;;;;;2.88;1.83;;;10.20;99.90;;;;;;5048735;28;20084;-55
2022/12/20 02:47:56;;;;;;;5.30;2.22;;;10.20;99.90;;;;;;5048469;28;20041;-54
2022/12/20 02:50:39;;;;;;;5.82;2.22;;;10.20;99.90;;;;;;5049869;28;20053;-55
2022/12/20 02:53:06;;;;;;;5.00;2.25;;;10.20;99.90;;;;;;5049862;28;20036;-54
2022/12/20 02:55:44;;;;;;;3.35;1.42;;;10.20;99.90;;;;;;5049832;28;20033;-53
2022/12/20 02:58:35;;;;;;;1.60;1.50;;;10.20;99.90;;;;;;5050344;28;20037;-54
2022/12/20 03:01:07;;;;;;;2.33;2.00;;;10.30;99.90;;;;;;5010161;28;20045;-52
2022/12/20 03:03:34;;;;;;;3.00;1.63;;;10.20;99.90;;;;;;5029779;28;20092;-57
2022/12/20 03:06:00;;;;;;;5.63;1.95;;;10.30;99.90;;;;;;5049962;28;20045;-55
2022/12/20 03:08:26;;;;;;;3.67;2.22;;;10.30;99.90;;;;;;5049946;28;20033;-54
2022/12/20 03:10:53;;;;;;;2.97;2.00;;;10.30;99.90;;;;;;5050305;28;20033;-54
2022/12/20 03:13:19;;;;;;;3.22;1.98;;;10.30;99.90;;;;;;5049001;28;20299;-56
2022/12/20 03:15:45;;;;;;;1.75;1.58;;;10.30;99.90;;;;;;5049968;28;20048;-55
2022/12/20 03:18:11;;;;;;;6.43;2.57;;;10.20;99.90;;;;;;5049934;28;20037;-55
2022/12/20 03:20:37;;;;;;;6.27;3.57;;;10.10;99.90;;;;;;5050071;28;20144;-55
2022/12/20 03:23:02;;;;;;;3.17;2.33;;;10.10;99.90;;;;;;5049081;28;20353;-54
2022/12/20 03:25:28;;;;;;;4.20;2.65;;;10.10;99.90;;;;;;5049789;28;20045;-52
2022/12/20 03:27:54;;;;;;;5.57;2.28;;;10.00;99.90;;;;;;5048963;28;20045;-56
2022/12/20 03:30:19;;;;;;;3.77;1.97;;;10.10;99.90;;;;;;5049100;28;20048;-56
2022/12/20 03:32:45;;;;;;;4.40;2.37;;;10.00;99.90;;;;;;5049670;28;20090;-56
2022/12/20 03:35:11;;;;;;;5.83;2.17;;;10.00;99.90;;;;;;5048789;28;20283;-56
2022/12/20 03:37:36;;;;;;;3.10;2.53;;;10.00;99.90;;;;;;5049745;28;20048;-56
2022/12/20 03:40:02;;;;;;;5.10;2.67;;;9.90;99.90;;;;;;5049043;28;20290;-56
2022/12/20 03:42:28;;;;;;;3.00;2.72;;;9.90;99.90;;;;;;5049700;28;20041;-56
2022/12/20 03:44:53;;;;;;;4.50;2.53;;;9.90;99.90;;;;;;5048472;28;20518;-56
2022/12/20 03:47:19;;;;;;;4.40;3.07;;;9.90;99.90;;;;;;5049138;28;20107;-56
2022/12/20 03:49:45;;;;;;;5.72;3.17;;;9.90;99.90;;;;;;5049344;28;20036;-56
2022/12/20 03:52:12;;;;;;;3.75;2.63;;;9.80;99.90;;;;;;5049220;28;20091;-54
2022/12/20 03:54:38;;;;;;;4.28;2.65;;;9.80;99.90;;;;;;5048358;28;20076;-51
2022/12/20 03:57:03;;;;;;;4.07;2.93;;;9.80;99.90;;;;;;5048509;28;20044;-55
2022/12/20 03:59:29;;;;;;;3.25;2.20;;;9.80;99.90;;;;;;5049120;28;20045;-52
2022/12/20 04:01:55;;;;;;;4.43;3.03;;;9.90;99.90;;;;;;5048125;28;20209;-55
2022/12/20 04:04:20;;;;;;;3.47;2.93;;;9.90;99.90;;;;;;5048838;28;20068;-53
2022/12/20 04:06:47;;;;;;;3.83;2.40;;;9.90;99.90;;;;;;5049354;28;20383;-52
2022/12/20 04:09:12;;;;;;;;;;;9.90;99.90;;;;;;5049818;28;20502;-54
2022/12/20 04:11:38;;;;;;;3.83;2.95;;;9.90;99.90;;;;;;5048406;28;19927;-53
2022/12/20 04:14:04;;;;;;;2.97;2.67;;;9.90;99.90;;;;;;5050720;28;20041;-54
2022/12/20 04:16:30;;;;;;;4.05;3.03;;;9.90;99.90;;;;;;5053510;28;20123;-52
2022/12/20 04:18:56;;;;;;;6.22;3.78;;;9.90;99.90;;;;;;5053637;28;20048;-54
2022/12/20 04:21:25;;;;;;;4.40;3.25;;;9.90;99.90;;;;;;5052893;28;20033;-52
2022/12/20 04:23:50;;;;;;;6.95;2.70;;;9.80;99.90;;;;;;5052331;28;20383;-52
2022/12/20 04:26:17;;;;;;;3.50;2.90;;;9.80;99.90;;;;;;5053074;28;20036;-55
2022/12/20 04:28:42;;;;;;;3.58;2.53;;;9.80;99.90;;;;;;5051903;28;20041;-54
2022/12/20 04:31:09;;;;;;;3.60;2.70;;;9.90;99.90;;;;;;5053360;28;20048;-55
2022/12/20 04:33:34;;;;;;;3.97;2.40;;;9.90;99.90;;;;;;5052439;28;20120;-53
2022/12/20 04:36:00;;;;;;;6.10;2.50;;;9.90;99.90;;;;;;5053383;28;20120;-54
2022/12/20 04:38:26;;;;;;;10.70;3.53;;;9.90;99.90;;;;;;5052678;28;20310;-52
2022/12/20 04:40:53;;;;;;;6.60;3.30;;;9.90;99.90;;;;;;5053422;28;20047;-55
2022/12/20 04:43:20;;;;;;;4.13;3.10;;;10.00;99.90;;;;;;5052254;28;20417;-53
2022/12/20 04:45:47;;;;;;;6.38;3.30;;;10.00;99.90;;;;;;5053447;28;20060;-52
2022/12/20 04:48:13;;;;;;;5.40;2.50;;;10.00;99.90;;;;;;5052486;28;20044;-54
2022/12/20 04:50:39;;;;;;;4.03;2.50;;;9.90;99.90;;;;;;5053070;28;20045;-55
2022/12/20 04:55:49;;;;;;;3.63;2.53;;;10.00;99.90;;;;;;5053305;28;20130;-52
2022/12/20 04:58:15;;;;;;;3.28;2.67;;;10.00;99.90;;;;;;5051906;28;20112;-52
2022/12/20 05:00:41;;;;;;;5.70;2.55;;;10.10;99.90;;;;;;5052477;28;20134;-52
2022/12/20 05:03:07;;;;;;;2.40;2.20;;;10.10;99.90;;;;;;5050973;28;20087;-56
2022/12/20 05:05:32;;;;;;;4.45;2.00;;;10.20;99.90;;;;;;5052092;28;20037;-54
2022/12/20 05:07:58;;;;;;;3.10;2.40;;;10.20;99.90;;;;;;5051239;28;20094;-54
2022/12/20 05:10:24;;;;;;;3.17;2.37;;;10.30;99.90;;;;;;5052995;28;20048;-55
2022/12/20 05:12:49;;;;;;;3.13;2.22;;;10.30;99.90;;;;;;5051535;28;20049;-56
2022/12/20 05:15:15;;;;;;;2.53;2.13;;;10.40;99.90;;;;;;5052059;28;20044;-55
2022/12/20 05:17:40;;;;;;;6.97;3.63;;;10.40;99.90;;;;;;5052029;28;20051;-56
2022/12/20 05:20:07;;;;;;;3.27;2.00;;;10.50;99.90;;;;;;5051974;28;20048;-55
2022/12/20 05:28:01;;;;;;;5.03;2.08;;;10.60;99.90;;;;;;5052434;28;20045;-56
2022/12/20 05:30:26;;;;;;;3.23;1.70;;;10.60;99.90;;;;;;5052521;28;20037;-56
2022/12/20 05:32:52;;;;;;;3.90;2.53;;;10.70;99.90;;;;;;5051647;28;20041;-55
2022/12/20 05:35:18;;;;;;;2.75;1.45;;;10.70;99.90;;;;;;5051444;28;20075;-54
2022/12/20 05:37:44;;;;;;;2.20;1.80;;;10.70;99.90;;;;;;5051477;28;20533;-56
2022/12/20 05:40:10;;;;;;;3.08;2.28;;;10.80;99.90;;;;;;5052046;28;20037;-56
2022/12/20 05:42:36;;;;;;;2.83;2.50;;;10.80;99.90;;;;;;5051978;28;20532;-55
2022/12/20 05:45:02;;;;;;;4.55;1.75;;;10.80;99.90;;;;;;5050505;28;20048;-54
2022/12/20 05:47:32;;;;;;;2.05;1.75;;;10.80;99.90;;;;;;5051867;28;20037;-56
2022/12/20 05:49:58;;;;;;;5.03;2.25;;;10.80;99.90;;;;;;5051862;28;20049;-56
2022/12/20 05:52:24;;;;;;;;;;;10.80;99.90;;;;;;5050945;28;20517;-56
2022/12/20 05:54:50;;;;;;;2.67;2.13;;;10.80;99.90;;;;;;5050424;28;19924;-56
2022/12/20 05:57:16;;;;;;;4.97;1.93;;;10.80;99.90;;;;;;5051439;28;20425;-56
2022/12/20 05:59:42;;;;;;;5.45;2.55;;;10.80;99.90;;;;;;5051738;28;20288;-52
2022/12/20 06:02:09;;;;;;;3.85;2.20;;;10.70;99.90;;;;;;5051579;28;20051;-54
2022/12/20 06:04:37;;;;;;;4.22;1.70;;;10.70;99.90;;;;;;5050884;28;20052;-52
2022/12/20 06:07:04;;;;;;;3.42;1.98;;;10.70;99.90;;;;;;5051461;28;20044;-52
2022/12/20 06:09:30;;;;;;;6.57;3.10;;;10.70;99.90;;;;;;5050200;28;20092;-55
2022/12/20 06:11:55;;;;;;;2.55;1.88;;;10.70;99.90;;;;;;5050831;28;20041;-55
2022/12/20 06:14:21;;;;;;;2.45;1.77;;;10.70;99.90;;;;;;5050147;28;20051;-52
2022/12/20 06:16:47;;;;;;;2.73;1.80;;;10.70;99.90;;;;;;5050835;28;20033;-54
2022/12/20 06:19:13;;;;;;;5.50;2.03;;;10.70;99.90;;;;;;5051061;28;20268;-52
2022/12/20 06:21:38;;;;;;;3.03;2.40;;;10.80;99.90;;;;;;5050934;28;20045;-55
2022/12/20 06:24:05;;;;;;;5.07;2.38;;;10.80;99.90;;;;;;5050369;28;20044;-54
2022/12/20 06:26:35;;;;;;;4.10;2.38;;;10.80;99.90;;;;;;5050939;28;20055;-53
2022/12/20 06:29:06;;;;;;;4.15;2.22;;;10.80;99.90;;;;;;5050954;28;20041;-55
2022/12/20 06:31:32;;;;;;;4.50;1.88;;;10.90;99.90;;;;;;5050869;28;20105;-55
2022/12/20 06:33:58;;;;;;;5.97;2.63;;;10.80;99.90;;;;;;5050012;28;20194;-52
2022/12/20 06:36:23;;;;;;;4.78;1.98;;;10.80;99.90;;;;;;5049098;28;20112;-54
2022/12/20 06:38:49;;;;;;;2.50;1.88;;;10.90;99.90;;;;;;5050623;28;20111;-55
2022/12/20 06:41:15;;;;;;;6.05;2.60;;;10.80;99.90;;;;;;5050697;28;20476;-56
2022/12/20 06:43:40;;;;;;;4.07;2.10;;;10.80;99.90;;;;;;5050325;28;20036;-52
2022/12/20 06:46:06;;;;;;;5.60;1.67;;;10.70;99.90;;;;;;5050282;28;20279;-52
2022/12/20 06:48:31;;;;;;;4.87;2.23;;;10.70;99.90;;;;;;5050483;28;20056;-55
2022/12/20 06:50:57;;;;;;;3.13;2.27;;;10.60;99.90;;;;;;5050081;28;20413;-52
2022/12/20 06:53:23;;;;;;;3.67;2.77;;;10.60;99.90;;;;;;5050194;28;20781;-53
2022/12/20 06:55:49;;;;;;;3.10;2.67;;;10.60;99.90;;;;;;5052469;28;20283;-53
2022/12/20 06:58:16;;;;;;;3.85;2.67;;;10.50;99.90;;;;;;5048385;28;20068;-53
2022/12/20 07:00:41;;;;;;;4.78;3.15;;;10.40;99.90;;;;;;5049867;28;20512;-52
2022/12/20 07:03:07;;;;;;;3.47;2.90;;;10.40;99.90;;;;;;5048731;28;20049;-53
2022/12/20 07:05:32;;;;;;;5.97;3.30;;;10.40;99.90;;;;;;5050052;28;20069;-53
2022/12/20 07:07:58;;;;;;;4.60;3.40;;;10.40;99.90;;;;;;5048926;28;20294;-56
2022/12/20 07:10:23;;;;;;;4.50;3.17;;;10.40;99.90;;;;;;5050109;28;20121;-56
2022/12/20 07:12:51;;;;;;;3.30;3.00;;;10.40;99.90;;;;;;5049976;28;20040;-55
2022/12/20 07:15:17;;;;;;;5.47;3.40;;;10.40;99.90;;;;;;5037864;28;20317;-56
2022/12/20 07:17:43;;;;;;;4.60;4.00;;;10.40;99.90;;;;;;5049507;28;20478;-56
2022/12/20 07:20:09;;;;;;;6.95;4.13;;;10.40;99.90;;;;;;5048389;28;20043;-54
2022/12/20 07:22:34;;;;;;;5.13;3.55;;;10.40;99.90;;;;;;5050178;28;20095;-51
2022/12/20 07:25:00;;;;;;;6.07;3.80;;;10.40;99.90;;;;;;5049318;28;20391;-54
2022/12/20 07:27:26;;;;;;;8.77;4.57;;;10.30;99.90;;;;;;5049181;28;20037;-53
2022/12/20 07:29:51;;;;;;;4.03;3.63;;;10.40;99.90;;;;;;5049445;28;20037;-56
2022/12/20 07:32:17;;;;;;;5.30;4.23;;;10.30;99.90;;;;;;5049980;28;20041;-58
2022/12/20 07:34:42;;;;;;;5.07;4.40;;;10.30;99.90;;;;;;5049573;28;20504;-54
2022/12/20 07:37:08;;;;;;;9.97;4.17;;;10.30;99.90;;;;;;5049412;28;20037;-60
2022/12/20 07:39:34;;;;;;;5.78;3.80;;;10.30;99.90;;;;;;5044833;28;20049;-54
2022/12/20 07:41:59;;;;;;;6.20;3.40;;;10.30;99.90;;;;;;5042839;28;20547;-56
2022/12/20 07:44:25;;;;;;;5.90;3.83;;;10.30;99.90;;;;;;5048138;28;20044;-56
2022/12/20 07:46:51;;;;;;;5.10;3.67;;;10.30;99.90;;;;;;5049532;28;20041;-56
2022/12/20 07:49:16;;;;;;;3.97;3.17;;;10.30;99.90;;;;;;5049289;28;20132;-55
2022/12/20 07:51:47;;;;;;;6.00;4.13;;;10.30;99.90;;;;;;5081639;28;20048;-54
2022/12/20 07:54:26;;;;;;;3.63;2.78;;;10.30;99.90;;;;;;5047963;28;20283;-57
2022/12/20 07:56:57;;;;;;;6.18;3.03;;;10.40;99.90;;;;;;5045904;28;20040;-56
2022/12/20 07:59:32;;;;;;;12.90;4.03;;;10.40;99.90;;;;;;5048984;28;20033;-56
2022/12/20 08:01:58;;;;;;;5.88;2.60;;;10.40;99.90;;;;;;5047903;28;20041;-56
2022/12/20 08:04:27;;;;;;;4.40;3.03;;;10.40;99.90;;;;;;5047929;28;20033;-57
2022/12/20 08:06:55;;;;;;;2.75;2.40;;;10.50;99.90;;;;;;5049034;28;20368;-55
2022/12/20 08:09:22;;;;;;;2.38;2.15;;;10.50;99.90;;;;;;5045294;28;20138;-56
2022/12/20 08:11:49;;;;;;;4.50;2.40;;;10.50;99.90;;;;;;5044393;28;20116;-57
2022/12/20 08:14:15;;;;;;;;;;;10.50;99.90;;;;;;5047582;28;20032;-54
2022/12/20 08:16:42;;;;;;;3.90;2.87;;;10.60;99.90;;;;;;5038691;28;19917;-56
2022/12/20 08:19:08;;;;;;;6.72;2.35;;;10.60;99.90;;;;;;5035715;28;20079;-54
2022/12/20 08:21:34;;;;;;;5.45;2.72;;;10.60;99.90;;;;;;5044135;28;20033;-53
2022/12/20 08:23:59;;;;;;;4.15;2.00;;;10.60;99.90;;;;;;5042548;28;20055;-54
2022/12/20 08:26:25;;;;;;;3.90;2.50;;;10.60;99.90;;;;;;5044178;28;20041;-53
2022/12/20 08:28:50;;;;;;;4.85;3.13;;;10.70;99.90;;;;;;5043675;28;20057;-55
2022/12/20 08:31:16;;;;;;;3.17;1.83;;;10.70;99.90;;;;;;5044233;28;20037;-53
2022/12/20 08:33:42;;;;;;;2.20;1.80;;;10.70;99.90;;;;;;5075642;28;20051;-52
2022/12/20 08:36:10;;;;;;;3.92;1.85;;;10.70;99.90;;;;;;5042516;28;20069;-53
2022/12/20 08:38:36;;;;;;;2.85;2.10;;;10.80;99.90;;;;;;5037302;28;20137;-53
2022/12/20 08:41:11;;;;;;;2.30;2.05;;;10.80;99.90;;;;;;5044251;28;20067;-56
2022/12/20 08:43:39;;;;;;;5.13;2.33;;;10.80;99.90;;;;;;5042355;28;20060;-53
2022/12/20 08:46:05;;;;;;;2.42;1.77;;;10.80;99.90;;;;;;5042314;28;20041;-55
2022/12/20 08:48:32;;;;;;;6.53;3.08;;;10.80;99.90;;;;;;5041071;28;20033;-52
2022/12/20 08:51:01;;;;;;;6.35;2.13;;;10.80;99.90;;;;;;5044228;28;20044;-51
2022/12/20 08:53:28;;;;;;;3.05;1.95;;;10.80;99.90;;;;;;5043479;28;20107;-51
2022/12/20 08:56:01;;;;;;;2.55;1.60;;;10.90;99.90;;;;;;5043252;28;20045;-54
2022/12/20 08:58:27;;;;;;;4.88;2.45;;;10.90;99.90;;;;;;5035741;28;20406;-52
2022/12/20 09:00:52;;;;;;;3.83;2.30;;;10.90;99.90;;;;;;5045487;28;20217;-55
2022/12/20 09:03:18;;;;;;;3.03;1.90;;;10.90;99.90;;;;;;5069757;28;20072;-51
2022/12/20 09:05:45;;;;;;;4.53;2.53;;;10.90;99.90;;;;;;5042220;28;20119;-55
2022/12/20 09:08:11;;;;;;;3.15;2.00;;;10.90;99.90;;;;;;5041792;28;20073;-55
2022/12/20 09:10:36;;;;;;;3.33;2.30;;;10.90;99.90;;;;;;5040929;28;20112;-51
2022/12/20 09:13:02;;;;;;;6.63;2.23;;;10.90;99.90;;;;;;5036808;28;20037;-52
2022/12/20 09:15:27;;;;;;;3.13;2.23;;;10.90;99.90;;;;;;5039173;28;20038;-55
2022/12/20 09:17:54;;;;;;;5.70;2.23;;;10.90;99.90;;;;;;5040579;28;20053;-54
2022/12/20 09:20:20;;;;;;;2.97;2.60;;;10.90;99.90;;;;;;5040384;28;20302;-54
2022/12/20 09:22:45;;;;;;;2.90;2.08;;;10.90;99.90;;;;;;5042435;28;20036;-54
2022/12/20 09:25:11;;;;;;;3.93;2.07;;;11.00;99.90;;;;;;5043893;28;20036;-53
2022/12/20 09:27:37;;;;;;;8.65;2.58;;;11.00;99.90;;;;;;5037824;28;20342;-56
2022/12/20 09:30:03;;;;;;;3.05;1.58;;;11.00;99.90;;;;;;5041770;28;20037;-55
2022/12/20 09:32:29;;;;;;;;;;;11.00;99.90;;;;;;5044943;28;20316;-56
2022/12/20 09:34:54;;;;;;;3.10;1.85;;;11.00;99.90;;;;;;5043441;28;19926;-55
2022/12/20 09:37:20;;;;;;;6.57;2.05;;;11.00;99.90;;;;;;5040744;28;20592;-55
2022/12/20 09:39:49;;;;;;;6.17;2.23;;;11.00;99.90;;;;;;5041391;28;20032;-56
2022/12/20 09:42:15;;;;;;;4.72;2.10;;;11.00;99.90;;;;;;5039950;28;20300;-54
2022/12/20 09:44:41;;;;;;;6.30;2.55;;;10.90;99.90;;;;;;5040367;28;20041;-55
2022/12/20 09:47:13;;;;;;;;;;;10.90;99.90;;;;;;5041820;28;20435;-56
2022/12/20 09:49:42;;;;;;;4.00;1.92;;;10.90;99.90;;;;;;5046110;28;19924;-56
2022/12/20 09:52:20;;;;;;;5.90;2.70;;;10.90;99.90;;;;;;5043651;28;20124;-56
2022/12/20 09:55:07;;;;;;;2.35;2.15;;;10.90;99.90;;;;;;5043656;28;20116;-57
2022/12/20 09:58:03;;;;;;;2.53;1.48;;;10.90;99.90;;;;;;5042044;28;20056;-56
2022/12/20 10:00:33;;;;;;;4.13;2.13;;;10.80;99.90;;;;;;5044306;28;20040;-56
2022/12/20 10:03:02;;;;;;;3.85;2.03;;;10.80;99.90;;;;;;5039982;28;20118;-56
2022/12/20 10:05:43;;;;;;;4.63;2.08;;;10.70;99.90;;;;;;5046031;28;20157;-56
2022/12/20 10:08:47;;;;;;;2.58;2.35;;;10.70;99.90;;;;;;5041644;28;20098;-55
2022/12/20 10:11:23;;;;;;;3.67;2.33;;;10.60;99.90;;;;;;5036482;28;20052;-55
2022/12/20 10:14:24;;;;;;;3.63;2.78;;;10.60;99.90;;;;;;5044291;28;20414;-55
2022/12/20 10:16:57;;;;;;;4.82;2.50;;;10.50;99.90;;;;;;5043971;28;20044;-56
2022/12/20 10:19:25;;;;;;;3.00;2.20;;;10.40;99.90;;;;;;5040864;28;20033;-57
2022/12/20 10:22:09;;;;;;;5.90;2.72;;;10.40;99.90;;;;;;5043196;28;20060;-57
2022/12/20 10:24:37;;;;;;;3.92;2.63;;;10.40;99.90;;;;;;5033875;28;20045;-56
2022/12/20 10:27:16;;;;;;;7.47;2.20;;;10.40;99.90;;;;;;5037417;28;20332;-56
2022/12/20 10:29:42;;;;;;;2.80;2.05;;;10.40;99.90;;;;;;5033300;28;20052;-55
2022/12/20 10:32:19;;;;;;;4.57;2.03;;;10.40;99.90;;;;;;5033563;28;20041;-57
2022/12/20 10:35:04;;;;;;;3.38;2.42;;;10.40;99.90;;;;;;5037881;28;20033;-52
2022/12/20 10:37:30;;;;;;;6.47;2.40;;;10.40;99.90;;;;;;5041212;28;20040;-55
2022/12/20 10:39:56;;;;;;;10.13;3.08;;;10.30;99.90;;;;;;5034948;28;20098;-55
2022/12/20 10:42:37;;;;;;;6.20;2.40;;;10.30;99.90;;;;;;5042429;28;20032;-54
2022/12/20 10:45:03;;;;;;;4.00;2.40;;;10.30;99.90;;;;;;5041977;28;20049;-55
2022/12/20 10:47:36;;;;;;;3.85;2.90;;;10.30;99.90;;;;;;5037755;28;20044;-56
2022/12/20 10:50:28;;;;;;;3.22;2.08;;;10.30;99.90;;;;;;5038034;28;20635;-56
2022/12/20 10:53:15;;;;;;;3.90;2.33;;;10.30;99.90;;;;;;5039641;28;20057;-55
2022/12/20 10:55:41;;;;;;;3.38;1.98;;;10.30;99.90;;;;;;5043355;28;20033;-56
2022/12/20 10:58:34;;;;;;;4.68;2.60;;;10.30;99.90;;;;;;5035139;28;20037;-56
2022/12/20 11:01:05;;;;;;;4.53;2.65;;;10.30;99.90;;;;;;5045542;28;20068;-56
2022/12/20 11:03:30;;;;;;;4.03;2.53;;;10.30;99.90;;;;;;5046738;28;20049;-55
2022/12/20 11:06:01;;;;;;;3.47;1.83;;;10.30;99.90;;;;;;5053915;28;20053;-55
2022/12/20 11:08:28;;;;;;;5.85;2.90;;;10.30;99.90;;;;;;5049322;28;20047;-56
2022/12/20 11:11:16;;;;;;;4.28;2.80;;;10.30;99.90;;;;;;5040790;28;20053;-55
2022/12/20 11:13:43;;;;;;;3.42;2.38;;;10.30;99.90;;;;;;5042275;28;20051;-54
2022/12/20 11:16:37;;;;;;;8.20;4.07;;;10.30;99.90;;;;;;5043485;28;20308;-56
2022/12/20 11:19:29;;;;;;;2.88;2.03;;;10.30;99.90;;;;;;5042228;28;20049;-55
2022/12/20 11:22:06;;;;;;;5.40;2.22;;;10.30;99.90;;;;;;5040304;28;20414;-56
2022/12/20 11:24:51;;;;;;;7.15;2.80;;;10.30;99.90;;;;;;5039088;28;20040;-55
2022/12/20 11:27:25;;;;;;;5.22;2.95;;;10.30;99.90;;;;;;5044019;28;20051;-55
2022/12/20 11:30:20;;;;;;;4.22;2.17;;;10.30;99.90;;;;;;5044563;28;20568;-54
2022/12/20 11:33:02;;;;;;;5.70;2.67;;;10.30;99.90;;;;;;5044307;28;20052;-57
2022/12/20 11:35:45;;;;;;;5.30;3.20;;;10.20;99.90;;;;;;5036514;28;20040;-56
2022/12/20 11:38:30;;;;;;;5.55;3.03;;;10.20;99.90;;;;;;5042654;28;20041;-55
2022/12/20 11:41:15;;;;;;;6.18;2.83;;;10.20;99.90;;;;;;5077558;28;20229;-54
2022/12/20 11:43:56;;;;;;;3.92;3.17;;;10.20;99.90;;;;;;5044284;28;20512;-54
2022/12/20 11:46:50;;;;;;;7.47;3.85;;;10.20;99.90;;;;;;5042319;28;20111;-55
2022/12/20 11:49:31;;;;;;;4.82;3.35;;;10.20;99.90;;;;;;5042263;28;20102;-56
2022/12/20 11:51:59;;;;;;;6.05;3.70;;;10.20;99.90;;;;;;5037431;28;20535;-57
2022/12/20 11:54:37;;;;;;;3.88;2.63;;;10.20;99.90;;;;;;5042487;28;20033;-55
2022/12/20 11:57:37;;;;;;;4.18;3.58;;;10.20;99.90;;;;;;5039645;28;20494;-56
2022/12/20 12:00:05;;;;;;;5.65;3.20;;;10.20;99.90;;;;;;5022653;28;20574;-57
2022/12/20 12:02:40;;;;;;;8.70;3.30;;;10.10;99.90;;;;;;5022984;28;20052;-53
2022/12/20 12:05:19;;;;;;;5.90;3.72;;;10.10;99.90;;;;;;5020032;28;20045;-56
2022/12/20 12:07:51;;;;;;;5.38;2.53;;;10.10;99.90;;;;;;5020927;28;20152;-55
2022/12/20 12:10:22;;;;;;;6.55;3.85;;;10.10;99.90;;;;;;5021642;28;20124;-56
2022/12/20 12:12:58;;;;;;;8.55;3.65;;;10.20;99.90;;;;;;5022091;28;20045;-55
2022/12/20 12:15:30;;;;;;;5.65;3.38;;;10.10;99.90;;;;;;5021985;28;20042;-56
2022/12/20 12:18:14;;;;;;;5.30;3.55;;;10.10;99.90;;;;;;5021912;28;20056;-56
2022/12/20 12:20:47;;;;;;;6.78;3.67;;;10.20;99.90;;;;;;5021325;28;20041;-56
2022/12/20 12:23:21;;;;;;;4.75;3.92;;;10.10;99.90;;;;;;5021318;28;20140;-56
2022/12/20 12:25:47;;;;;;;6.75;3.42;;;10.20;99.90;;;;;;5021957;28;20041;-55
2022/12/20 12:28:13;;;;;;;4.63;3.15;;;10.10;99.90;;;;;;5008522;28;20114;-54
2022/12/20 12:30:44;;;;;;;4.70;3.30;;;10.10;99.90;;;;;;5022102;28;20562;-57
2022/12/20 12:33:24;;;;;;;6.45;4.38;;;10.20;99.90;;;;;;5004765;28;20053;-56
2022/12/20 12:36:43;;;;;;;5.88;3.47;;;10.20;99.90;;;;;;5032271;28;20045;-56
2022/12/20 12:39:49;;;;;;;5.28;3.28;;;10.20;99.90;;;;;;5035946;28;20299;-57
2022/12/20 12:42:46;;;;;;;5.38;3.78;;;10.20;99.90;;;;;;5039743;28;20325;-54
2022/12/20 12:45:27;;;;;;;4.40;3.35;;;10.20;99.90;;;;;;5063865;28;20059;-56
2022/12/20 12:47:59;;;;;;;5.80;3.50;;;10.20;99.90;;;;;;5049106;28;20049;-56
2022/12/20 12:50:32;;;;;;;6.13;4.03;;;10.20;99.90;;;;;;5049666;28;20060;-56
2022/12/20 12:53:16;;;;;;;8.80;4.85;;;10.20;99.90;;;;;;5069308;28;20066;-57
2022/12/20 12:55:46;;;;;;;8.85;4.53;;;10.20;99.90;;;;;;5046575;28;20056;-56
2022/12/20 12:58:22;;;;;;;5.57;3.65;;;10.20;99.90;;;;;;5051539;28;20177;-55
2022/12/20 13:00:53;;;;;;;5.05;4.20;;;10.20;99.90;;;;;;5048191;28;20071;-54
2022/12/20 13:03:53;;;;;;;6.47;3.95;;;10.20;99.90;;;;;;5042711;28;20048;-57
2022/12/20 13:06:24;;;;;;;4.75;4.13;;;10.20;99.90;;;;;;5057108;28;20050;-57
2022/12/20 13:08:55;;;;;;;4.47;4.07;;;10.20;99.90;;;;;;5045399;28;20608;-55
2022/12/20 13:11:41;;;;;;;11.00;5.10;;;10.20;99.90;;;;;;5045732;28;20485;-56
2022/12/20 13:14:26;;;;;;;7.78;4.90;;;10.20;99.90;;;;;;5033196;28;20073;-56